createdAt,value
2022-12-19T00:01:55.503Z,31.60
2022-12-19T00:04:22.798Z,39.03
2022-12-19T00:06:50.152Z,41.92
2022-12-19T00:09:17.716Z,24.92
2022-12-19T00:11:44.938Z,31.40
2022-12-19T00:14:12.547Z,49.95
2022-12-19T00:16:39.789Z,38.72
2022-12-19T00:19:07.422Z,43.30
2022-12-19T00:21:35.411Z,30.23
2022-12-19T00:24:03.470Z,30.45
2022-12-19T00:26:35.364Z,30.25
2022-12-19T00:29:05.991Z,47.20
2022-12-19T00:31:36.364Z,29.40
2022-12-19T00:34:04.046Z,24.58
2022-12-19T00:36:33.652Z,31.48
2022-12-19T00:39:01.717Z,42.22
2022-12-19T00:41:36.106Z,31.63
2022-12-19T00:44:05.135Z,42.83
2022-12-19T00:46:35.151Z,28.25
2022-12-19T00:49:02.803Z,31.63
2022-12-19T00:51:31.529Z,31.98
2022-12-19T00:53:59.086Z,32.65
2022-12-19T00:56:27.921Z,30.25
2022-12-19T00:58:55.714Z,30.95
2022-12-19T01:01:34.363Z,39.75
2022-12-19T01:04:27.674Z,24.35
2022-12-19T01:06:51.639Z,21.58
2022-12-19T01:09:21.489Z,35.40
2022-12-19T01:12:08.106Z,28.77
2022-12-19T01:14:35.427Z,47.92
2022-12-19T01:17:02.575Z,27.55
2022-12-19T01:19:29.917Z,29.70
2022-12-19T01:21:57.023Z,29.92
2022-12-19T01:24:25.146Z,36.30
2022-12-19T01:26:52.266Z,24.83
2022-12-19T01:29:19.741Z,25.80
2022-12-19T01:31:48.459Z,28.20
2022-12-19T01:34:15.651Z,20.83
2022-12-19T01:36:42.941Z,23.92
2022-12-19T01:39:10.007Z,28.95
2022-12-19T01:41:38.244Z,48.38
2022-12-19T01:44:06.898Z,45.58
2022-12-19T01:46:39.045Z,40.85
2022-12-19T01:49:07.838Z,33.28
2022-12-19T01:51:45.694Z,39.92
2022-12-19T01:54:15.930Z,37.38
2022-12-19T01:56:44.728Z,41.08
2022-12-19T01:59:15.244Z,21.30
2022-12-19T02:01:51.691Z,39.67
2022-12-19T02:04:22.632Z,32.47
2022-12-19T02:06:50.845Z,41.25
2022-12-19T02:09:21.246Z,26.02
2022-12-19T02:11:48.523Z,38.83
2022-12-19T02:14:16.282Z,44.17
2022-12-19T02:17:07.315Z,44.67
2022-12-19T02:19:34.492Z,29.75
2022-12-19T02:22:04.022Z,43.00
2022-12-19T02:24:52.463Z,25.52
2022-12-19T02:27:40.556Z,41.03
2022-12-19T02:30:11.190Z,30.88
2022-12-19T02:33:00.097Z,32.08
2022-12-19T02:35:32.154Z,28.08
2022-12-19T02:38:13.210Z,27.27
2022-12-19T02:40:48.629Z,34.30
2022-12-19T02:43:24.622Z,34.95
2022-12-19T02:45:53.360Z,32.47
2022-12-19T02:48:21.602Z,36.60
2022-12-19T02:50:50.151Z,29.08
2022-12-19T02:53:22.322Z,35.28
2022-12-19T02:56:12.891Z,29.05
2022-12-19T02:59:02.952Z,40.00
2022-12-19T03:01:38.418Z,25.17
2022-12-19T03:04:12.406Z,32.45
2022-12-19T03:06:40.759Z,31.25
2022-12-19T03:09:15.359Z,43.60
2022-12-19T03:11:42.863Z,41.10
2022-12-19T03:14:12.936Z,29.67
2022-12-19T03:16:40.674Z,34.42
2022-12-19T03:19:12.618Z,27.52
2022-12-19T03:21:42.055Z,32.58
2022-12-19T03:24:10.849Z,25.00
2022-12-19T03:26:40.692Z,28.63
2022-12-19T03:29:20.191Z,41.85
2022-12-19T03:31:48.077Z,35.08
2022-12-19T03:34:18.256Z,31.40
2022-12-19T03:36:47.711Z,32.75
2022-12-19T03:39:15.290Z,23.33
2022-12-19T03:42:02.138Z,39.17
2022-12-19T03:44:32.417Z,39.78
2022-12-19T03:47:04.844Z,32.17
2022-12-19T03:49:32.404Z,33.92
2022-12-19T03:52:01.641Z,21.23
2022-12-19T03:54:34.650Z,32.00
2022-12-19T03:57:04.889Z,27.30
2022-12-19T03:59:31.993Z,32.70
2022-12-19T04:01:59.973Z,28.95
2022-12-19T04:04:28.026Z,22.00
2022-12-19T04:06:55.972Z,23.80
2022-12-19T04:09:24.137Z,21.58
2022-12-19T04:11:56.696Z,30.75
2022-12-19T04:14:28.935Z,26.38
2022-12-19T04:17:08.271Z,20.42
2022-12-19T04:19:42.437Z,20.27
2022-12-19T04:22:14.586Z,21.40
2022-12-19T04:24:43.080Z,20.73
2022-12-19T04:27:11.070Z,22.00
2022-12-19T04:29:39.299Z,21.60
2022-12-19T04:32:07.833Z,17.17
2022-12-19T04:34:38.854Z,20.30
2022-12-19T04:37:08.538Z,24.20
2022-12-19T04:39:35.756Z,16.13
2022-12-19T04:42:02.881Z,17.85
2022-12-19T04:44:30.209Z,23.63
2022-12-19T04:46:57.432Z,22.20
2022-12-19T04:49:24.627Z,20.63
2022-12-19T04:51:51.711Z,21.30
2022-12-19T04:54:18.863Z,19.15
2022-12-19T04:56:46.066Z,21.85
2022-12-19T04:59:13.403Z,24.58
2022-12-19T05:01:40.746Z,23.48
2022-12-19T05:04:08.020Z,18.02
2022-12-19T05:06:35.182Z,17.95
2022-12-19T05:09:02.317Z,16.88
2022-12-19T05:11:29.972Z,15.55
2022-12-19T05:13:58.792Z,22.75
2022-12-19T05:16:26.013Z,23.02
2022-12-19T05:18:54.440Z,20.67
2022-12-19T05:21:22.080Z,20.15
2022-12-19T05:23:49.781Z,24.08
2022-12-19T05:26:17.019Z,17.67
2022-12-19T05:28:44.408Z,23.10
2022-12-19T05:31:13.018Z,13.27
2022-12-19T05:33:40.713Z,13.88
2022-12-19T05:36:08.519Z,14.25
2022-12-19T05:38:36.213Z,17.85
2022-12-19T05:41:10.206Z,18.00
2022-12-19T05:43:37.572Z,16.30
2022-12-19T05:46:05.348Z,15.00
2022-12-19T05:48:32.547Z,13.57
2022-12-19T05:50:59.722Z,19.38
2022-12-19T05:53:28.118Z,21.70
2022-12-19T05:56:09.155Z,23.33
2022-12-19T05:58:38.203Z,16.73
2022-12-19T06:01:08.484Z,18.92
2022-12-19T06:03:35.856Z,19.65
2022-12-19T06:06:07.256Z,16.55
2022-12-19T06:08:34.881Z,14.50
2022-12-19T06:11:02.516Z,23.77
2022-12-19T06:13:30.896Z,14.88
2022-12-19T06:16:01.837Z,12.93
2022-12-19T06:18:29.392Z,22.38
2022-12-19T06:21:00.349Z,12.75
2022-12-19T06:23:27.726Z,14.00
2022-12-19T06:26:00.059Z,22.58
2022-12-19T06:28:27.876Z,10.68
2022-12-19T06:30:59.215Z,18.13
2022-12-19T06:33:27.467Z,18.55
2022-12-19T06:36:01.289Z,18.73
2022-12-19T06:38:29.146Z,17.90
2022-12-19T06:41:15.285Z,18.40
2022-12-19T06:43:42.711Z,12.00
2022-12-19T06:46:10.275Z,18.65
2022-12-19T06:48:37.569Z,15.32
2022-12-19T06:51:04.798Z,14.52
2022-12-19T06:53:31.975Z,18.02
2022-12-19T06:55:59.897Z,18.05
2022-12-19T06:58:27.585Z,16.90
2022-12-19T07:00:54.808Z,15.73
2022-12-19T07:03:27.542Z,17.77
2022-12-19T07:05:54.838Z,20.08
2022-12-19T07:08:22.128Z,14.23
2022-12-19T07:10:49.368Z,20.35
2022-12-19T07:13:16.992Z,22.40
2022-12-19T07:15:44.267Z,16.77
2022-12-19T07:18:11.742Z,17.05
2022-12-19T07:20:44.903Z,14.02
2022-12-19T07:23:15.295Z,15.55
2022-12-19T07:25:42.526Z,21.08
2022-12-19T07:28:09.877Z,19.58
2022-12-19T07:30:37.303Z,18.50
2022-12-19T07:33:11.819Z,24.15
2022-12-19T07:35:46.024Z,19.67
2022-12-19T07:38:13.303Z,17.15
2022-12-19T07:40:40.546Z,18.67
2022-12-19T07:43:07.890Z,16.90
2022-12-19T07:45:37.285Z,16.80
2022-12-19T07:48:05.789Z,19.60
2022-12-19T07:50:33.209Z,20.60
2022-12-19T07:53:00.680Z,19.55
2022-12-19T07:55:27.915Z,14.68
2022-12-19T07:57:58.508Z,15.77
2022-12-19T08:00:25.677Z,21.98
2022-12-19T08:02:52.953Z,17.83
2022-12-19T08:05:20.318Z,16.45
2022-12-19T08:07:47.562Z,17.15
2022-12-19T08:10:15.144Z,15.73
2022-12-19T08:12:42.696Z,14.80
2022-12-19T08:15:11.318Z,13.90
2022-12-19T08:17:38.893Z,18.58
2022-12-19T08:20:07.541Z,18.48
2022-12-19T08:22:35.215Z,17.83
2022-12-19T08:25:02.370Z,16.88
2022-12-19T08:27:29.561Z,20.20
2022-12-19T08:29:56.828Z,12.45
2022-12-19T08:32:24.104Z,21.90
2022-12-19T08:34:51.382Z,17.20
2022-12-19T08:39:59.759Z,15.30
2022-12-19T08:42:27.097Z,13.32
2022-12-19T08:44:54.479Z,18.33
2022-12-19T08:47:21.829Z,14.98
2022-12-19T08:49:48.968Z,16.88
2022-12-19T08:52:17.317Z,19.88
2022-12-19T08:54:45.435Z,19.88
2022-12-19T08:57:12.862Z,16.35
2022-12-19T08:59:40.055Z,13.60
2022-12-19T09:02:08.155Z,21.67
2022-12-19T09:06:01.765Z,14.40
2022-12-19T09:07:22.971Z,17.48
2022-12-19T09:09:50.176Z,18.38
2022-12-19T09:12:17.731Z,12.63
2022-12-19T09:14:45.186Z,15.60
2022-12-19T09:17:12.436Z,18.02
2022-12-19T09:19:41.236Z,17.33
2022-12-19T09:22:10.682Z,14.23
2022-12-19T09:24:38.179Z,10.05
2022-12-19T09:27:05.337Z,13.25
2022-12-19T09:29:35.497Z,15.95
2022-12-19T09:34:37.143Z,12.02
2022-12-19T09:37:06.583Z,15.77
2022-12-19T09:39:35.014Z,14.25
2022-12-19T09:42:20.943Z,13.27
2022-12-19T09:44:59.101Z,15.25
2022-12-19T09:47:29.176Z,15.02
2022-12-19T09:49:57.876Z,16.15
2022-12-19T09:52:31.049Z,14.05
2022-12-19T09:55:10.922Z,15.27
2022-12-19T09:57:45.347Z,11.95
2022-12-19T10:00:15.498Z,16.20
2022-12-19T10:02:42.797Z,11.18
2022-12-19T10:05:20.491Z,14.07
2022-12-19T10:08:08.827Z,17.65
2022-12-19T10:12:42.159Z,15.00
2022-12-19T10:13:43.172Z,15.52
2022-12-19T10:16:19.950Z,11.48
2022-12-19T10:18:56.835Z,13.88
2022-12-19T10:21:58.930Z,14.18
2022-12-19T10:24:30.138Z,13.43
2022-12-19T10:27:01.691Z,13.20
2022-12-19T10:29:47.498Z,13.05
2022-12-19T10:32:14.747Z,12.25
2022-12-19T10:34:43.592Z,10.43
2022-12-19T10:37:23.757Z,10.73
2022-12-19T10:40:23.012Z,14.35
2022-12-19T10:42:54.485Z,14.05
2022-12-19T10:45:23.478Z,13.32
2022-12-19T10:47:52.332Z,11.48
2022-12-19T10:50:23.791Z,14.13
2022-12-19T10:52:52.915Z,14.73
2022-12-19T10:55:38.822Z,13.32
2022-12-19T10:58:12.716Z,10.13
2022-12-19T11:00:46.928Z,18.08
2022-12-19T11:03:19.135Z,9.82
2022-12-19T11:05:58.032Z,11.30
2022-12-19T11:08:25.766Z,12.80
2022-12-19T11:15:08.652Z,15.32
2022-12-19T11:18:40.764Z,12.85
2022-12-19T11:21:41.854Z,14.30
2022-12-19T11:22:21.339Z,13.50
2022-12-19T11:29:03.050Z,8.70
2022-12-19T11:30:48.668Z,14.77
2022-12-19T11:30:48.852Z,11.52
2022-12-19T11:33:47.624Z,13.52
2022-12-19T11:36:35.042Z,13.77
2022-12-19T11:39:03.749Z,12.73
2022-12-19T11:41:42.860Z,13.95
2022-12-19T11:44:19.840Z,11.18
2022-12-19T11:46:48.414Z,10.35
2022-12-19T11:49:33.785Z,17.02
2022-12-19T11:53:02.830Z,10.23
2022-12-19T11:55:19.801Z,13.93
2022-12-19T11:57:47.381Z,13.07
2022-12-19T12:00:16.974Z,12.35
2022-12-19T12:03:10.148Z,11.50
2022-12-19T12:06:09.387Z,11.70
2022-12-19T12:11:22.041Z,9.30
2022-12-19T12:18:02.361Z,12.90
2022-12-19T12:26:08.142Z,11.35
2022-12-19T12:29:32.763Z,13.25
2022-12-19T12:31:17.895Z,10.93
2022-12-19T12:31:27.902Z,14.85
2022-12-19T12:31:40.357Z,10.88
2022-12-19T12:31:44.387Z,12.15
2022-12-19T12:35:32.683Z,12.25
2022-12-19T12:40:29.539Z,10.27
2022-12-19T12:43:00.860Z,11.75
2022-12-19T12:45:32.262Z,8.43
2022-12-19T12:50:27.845Z,9.00
2022-12-19T12:53:00.498Z,12.25
2022-12-19T12:55:29.662Z,9.27
2022-12-19T12:57:56.902Z,11.48
2022-12-19T13:00:31.590Z,11.68
2022-12-19T13:03:17.397Z,9.40
2022-12-19T13:05:44.589Z,12.48
2022-12-19T13:08:30.517Z,11.50
2022-12-19T13:11:06.360Z,13.35
2022-12-19T13:13:49.824Z,10.68
2022-12-19T13:16:35.838Z,9.85
2022-12-19T13:19:27.894Z,11.10
2022-12-19T13:22:04.972Z,12.40
2022-12-19T13:24:39.389Z,11.10
2022-12-19T13:27:22.545Z,12.48
2022-12-19T13:30:05.341Z,11.27
2022-12-19T13:35:13.495Z,11.77
2022-12-19T13:40:02.472Z,9.60
2022-12-19T13:40:41.089Z,8.75
2022-12-19T13:43:29.988Z,10.68
2022-12-19T13:46:15.683Z,8.80
2022-12-19T13:48:47.248Z,9.52
2022-12-19T13:51:14.995Z,8.95
2022-12-19T13:53:42.905Z,9.35
2022-12-19T13:56:10.025Z,11.55
2022-12-19T13:58:39.908Z,9.60
2022-12-19T14:01:21.261Z,7.13
2022-12-19T14:03:49.653Z,9.30
2022-12-19T14:06:21.885Z,10.30
2022-12-19T14:09:37.471Z,9.07
2022-12-19T14:13:14.829Z,10.35
2022-12-19T14:14:47.819Z,9.68
2022-12-19T14:17:16.583Z,11.30
2022-12-19T14:19:45.597Z,10.10
2022-12-19T14:22:20.864Z,12.25
2022-12-19T14:25:45.096Z,9.77
2022-12-19T14:28:17.442Z,10.95
2022-12-19T14:30:38.936Z,8.35
2022-12-19T14:33:43.419Z,10.15
2022-12-19T14:36:12.037Z,8.73
2022-12-19T14:39:23.220Z,7.93
2022-12-19T14:41:47.848Z,8.85
2022-12-19T14:52:26.129Z,8.32
2022-12-19T14:53:51.126Z,8.23
2022-12-19T14:54:20.629Z,7.80
2022-12-19T14:54:22.462Z,10.90
2022-12-19T14:56:16.856Z,8.57
2022-12-19T14:58:54.241Z,8.95
2022-12-19T15:01:28.503Z,10.48
2022-12-19T15:04:53.133Z,10.77
2022-12-19T15:07:07.985Z,10.05
2022-12-19T15:11:06.264Z,10.02
2022-12-19T15:14:50.666Z,8.43
2022-12-19T15:16:00.752Z,7.90
2022-12-19T15:18:34.833Z,9.20
2022-12-19T15:21:03.055Z,6.18
2022-12-19T15:23:30.640Z,7.10
2022-12-19T15:26:04.090Z,7.82
2022-12-19T15:28:37.816Z,10.48
2022-12-19T15:31:07.602Z,8.25
2022-12-19T15:33:34.757Z,7.88
2022-12-19T15:36:03.504Z,9.43
2022-12-19T15:38:32.810Z,9.00
2022-12-19T15:40:59.942Z,10.80
2022-12-19T15:44:03.180Z,9.57
2022-12-19T15:46:34.379Z,9.63
2022-12-19T15:49:02.286Z,11.00
2022-12-19T15:51:29.544Z,9.02
2022-12-19T15:54:08.986Z,8.98
2022-12-19T15:56:53.570Z,8.35
2022-12-19T15:59:34.765Z,9.27
2022-12-19T16:02:11.748Z,7.97
2022-12-19T16:04:39.303Z,9.10
2022-12-19T16:07:14.094Z,10.38
2022-12-19T16:09:41.204Z,9.23
2022-12-19T16:12:11.644Z,8.00
2022-12-19T16:17:08.303Z,11.32
2022-12-19T16:19:35.614Z,9.10
2022-12-19T16:22:16.896Z,11.30
2022-12-19T16:24:44.176Z,11.20
2022-12-19T16:27:15.172Z,9.13
2022-12-19T16:29:42.662Z,8.20
2022-12-19T16:32:13.054Z,8.38
2022-12-19T16:37:09.944Z,8.10
2022-12-19T16:39:37.118Z,8.52
2022-12-19T16:42:07.508Z,8.07
2022-12-19T16:47:21.072Z,7.38
2022-12-19T16:55:43.231Z,10.57
2022-12-19T16:56:56.478Z,13.35
2022-12-19T16:59:48.516Z,10.35
2022-12-19T17:02:35.905Z,9.63
2022-12-19T17:05:04.374Z,9.77
2022-12-19T17:07:34.532Z,8.38
2022-12-19T17:10:03.895Z,7.72
2022-12-19T17:12:31.360Z,9.60
2022-12-19T17:14:59.597Z,9.68
2022-12-19T17:17:26.781Z,8.38
2022-12-19T17:19:53.936Z,9.10
2022-12-19T17:22:21.570Z,7.55
2022-12-19T17:24:49.424Z,9.35
2022-12-19T17:27:17.567Z,8.65
2022-12-19T17:29:45.853Z,8.25
2022-12-19T17:32:21.458Z,9.63
2022-12-19T17:34:53.691Z,10.75
2022-12-19T17:37:21.276Z,11.60
2022-12-19T17:39:48.620Z,8.68
2022-12-19T17:42:23.293Z,7.50
2022-12-19T17:44:50.622Z,11.43
2022-12-19T17:47:21.873Z,7.88
2022-12-19T17:49:49.238Z,7.70
2022-12-19T17:52:17.442Z,9.68
2022-12-19T17:54:46.060Z,11.77
2022-12-19T17:57:16.914Z,10.85
2022-12-19T17:59:46.951Z,8.70
2022-12-19T18:02:24.193Z,10.50
2022-12-19T18:04:51.875Z,9.63
2022-12-19T18:07:19.390Z,10.27
2022-12-19T18:09:46.789Z,6.47
2022-12-19T18:12:13.946Z,10.32
2022-12-19T18:14:41.504Z,7.07
2022-12-19T18:17:11.369Z,7.88
2022-12-19T18:19:38.729Z,8.45
2022-12-19T18:22:07.798Z,10.75
2022-12-19T18:24:34.931Z,9.80
2022-12-19T18:27:03.227Z,11.60
2022-12-19T18:29:30.625Z,6.97
2022-12-19T18:31:58.056Z,7.13
2022-12-19T18:34:26.310Z,6.97
2022-12-19T18:36:54.825Z,12.15
2022-12-19T18:39:27.935Z,9.43
2022-12-19T18:41:55.354Z,9.20
2022-12-19T18:44:25.135Z,9.30
2022-12-19T18:46:53.293Z,8.18
2022-12-19T18:49:20.859Z,11.77
2022-12-19T18:51:48.046Z,7.70
2022-12-19T18:54:15.238Z,9.18
2022-12-19T18:56:42.393Z,8.63
2022-12-19T18:59:10.975Z,8.77
2022-12-19T19:01:40.401Z,8.18
2022-12-19T19:04:08.861Z,9.80
2022-12-19T19:06:38.235Z,11.63
2022-12-19T19:09:11.632Z,11.05
2022-12-19T19:11:56.183Z,7.78
2022-12-19T19:14:23.384Z,11.85
2022-12-19T19:16:52.302Z,7.03
2022-12-19T19:19:19.711Z,12.70
2022-12-19T19:21:47.150Z,8.77
2022-12-19T19:24:16.067Z,8.23
2022-12-19T19:26:43.228Z,10.80
2022-12-19T19:29:10.412Z,7.75
2022-12-19T19:31:39.377Z,13.02
2022-12-19T19:34:13.448Z,9.88
2022-12-19T19:36:42.727Z,10.15
2022-12-19T19:39:10.721Z,13.10
2022-12-19T19:41:38.018Z,9.98
2022-12-19T19:44:05.241Z,6.85
2022-12-19T19:46:32.712Z,8.82
2022-12-19T19:49:00.251Z,7.95
2022-12-19T19:51:28.908Z,9.35
2022-12-19T19:53:56.543Z,7.97
2022-12-19T19:56:23.755Z,10.43
2022-12-19T19:58:50.971Z,8.60
2022-12-19T20:01:18.323Z,9.93
2022-12-19T20:03:46.570Z,10.23
2022-12-19T20:06:19.619Z,7.82
2022-12-19T20:08:46.969Z,9.30
2022-12-19T20:11:14.301Z,7.65
2022-12-19T20:13:41.480Z,9.38
2022-12-19T20:16:10.163Z,7.40
2022-12-19T20:18:38.097Z,7.82
2022-12-19T20:21:12.323Z,11.05
2022-12-19T20:23:40.836Z,8.93
2022-12-19T20:26:08.056Z,12.07
2022-12-19T20:28:35.538Z,11.43
2022-12-19T20:31:02.912Z,8.98
2022-12-19T20:33:30.184Z,9.98
2022-12-19T20:35:57.768Z,7.57
2022-12-19T20:38:25.156Z,7.90
2022-12-19T20:40:55.780Z,7.90
2022-12-19T20:43:23.784Z,9.27
2022-12-19T20:45:51.020Z,12.45
2022-12-19T20:48:18.528Z,9.68
2022-12-19T20:50:45.659Z,8.98
2022-12-19T20:53:12.900Z,10.55
2022-12-19T20:55:40.094Z,12.10
2022-12-19T20:58:09.246Z,9.32
2022-12-19T21:00:37.369Z,9.80
2022-12-19T21:05:55.514Z,9.65
2022-12-19T21:08:23.299Z,10.45
2022-12-19T21:10:50.702Z,10.18
2022-12-19T21:13:19.972Z,8.82
2022-12-19T21:15:51.948Z,9.95
2022-12-19T21:18:19.090Z,9.30
2022-12-19T21:20:47.276Z,10.20
2022-12-19T21:23:14.396Z,8.55
2022-12-19T21:25:43.949Z,10.88
2022-12-19T21:28:11.605Z,7.93
2022-12-19T21:30:38.865Z,9.23
2022-12-19T21:33:06.110Z,9.02
2022-12-19T21:35:37.808Z,10.18
2022-12-19T21:38:05.186Z,8.68
2022-12-19T21:40:32.363Z,7.88
2022-12-19T21:42:59.725Z,7.95
2022-12-19T21:45:26.966Z,10.48
2022-12-19T21:47:56.159Z,8.25
2022-12-19T21:50:23.440Z,12.25
2022-12-19T21:52:55.749Z,7.50
2022-12-19T21:55:23.189Z,9.32
2022-12-19T21:57:50.469Z,8.98
2022-12-19T22:00:17.730Z,8.63
2022-12-19T22:03:12.146Z,8.40
2022-12-19T22:05:35.253Z,6.85
2022-12-19T22:08:02.380Z,9.90
2022-12-19T22:10:29.561Z,9.95
2022-12-19T22:12:56.708Z,9.32
2022-12-19T22:15:23.830Z,7.97
2022-12-19T22:17:50.969Z,7.65
2022-12-19T22:20:18.128Z,8.32
2022-12-19T22:22:45.243Z,9.98
2022-12-19T22:25:12.802Z,7.93
2022-12-19T22:27:40.206Z,8.88
2022-12-19T22:30:11.047Z,9.20
2022-12-19T22:32:38.582Z,10.85
2022-12-19T22:35:06.057Z,9.25
2022-12-19T22:37:33.348Z,11.25
2022-12-19T22:40:00.682Z,9.63
2022-12-19T22:42:28.407Z,7.97
2022-12-19T22:44:56.420Z,8.93
2022-12-19T22:47:23.568Z,7.85
2022-12-19T22:49:53.759Z,8.98
2022-12-19T22:52:20.981Z,8.55
2022-12-19T22:54:48.108Z,9.38
2022-12-19T22:57:15.618Z,7.18
2022-12-19T22:59:43.006Z,7.75
2022-12-19T23:02:10.356Z,7.63
2022-12-19T23:04:37.600Z,8.38
2022-12-19T23:07:04.761Z,10.82
2022-12-19T23:09:31.933Z,10.00
2022-12-19T23:11:59.197Z,5.93
2022-12-19T23:14:26.313Z,7.05
2022-12-19T23:16:53.495Z,7.57
2022-12-19T23:19:20.699Z,7.07
2022-12-19T23:21:47.885Z,8.48
2022-12-19T23:24:15.298Z,6.70
2022-12-19T23:26:42.501Z,9.20
2022-12-19T23:29:11.138Z,9.13
2022-12-19T23:31:39.833Z,6.78
2022-12-19T23:34:06.952Z,9.20
2022-12-19T23:39:21.770Z,7.55
2022-12-19T23:41:49.061Z,7.57
2022-12-19T23:44:16.370Z,10.35
2022-12-19T23:46:43.610Z,7.13
2022-12-19T23:49:11.067Z,7.88
2022-12-19T23:51:38.310Z,7.53
2022-12-19T23:54:05.538Z,8.70
2022-12-19T23:56:32.999Z,8.23
2022-12-19T23:59:00.474Z,8.07
